Bei Facebook empfehlenBei Twitter postenGoogle plusPinterest

Das Wetter im Erzgebirge am 03.07.2016

Wetter und Klima am 03.07.2016 Holzhau im Erzgebirge (630m ü.NN)
Letzte gemessene Temperatur und Uhrzeit der Messung23:45:00 Uhr6.10 °C
Temperatur (Maximum / Höchstwert) und Uhrzeit der Messung12:15:00 Uhr18.80 °C
Temperatur (Minimum / Tiefstwert) und Uhrzeit der Messung23:45:006.10 °C
Errechneter Absolutwert der Temperaturschwankungen zwischen Tmin und Tmax des Tages12.70 K
Errechnete Tagesmitteltemperatur11.60000 °C
Gesamt - Niederschlag des Tages (in flüssiger Form)4.66 Liter / m²
Luftdruck (Maximum / Höchstwert) und Zeitpunkt der Messung23:30:00 Uhr1018.70 hPa
Luftdruck (Minimum / Tiefstwert) und Zeitpunkt der Messung00:45:00 Uhr1015.10 hPa
Errechneter Absolutwert der Luftdruckschwankungen des Tages3.60 hPa
Höchste gemessene Windgeschwindigkeit und Uhrzeit der Messung23:45:00 Uhr0.00 km/h
Errechnete Windhäufigkeit in Relation zu den Messwerten des Tages0.00000 %
Niedrigste Windkühle (Windchill) und Zeitpunkt der Messung23:45:00 Uhr6.10 °C
Taupunkt (Maximum / Höchstwert) und Uhrzeit der Messung08:00:00 Uhr13.30 °C
Taupunkt (Minimum / Tiefstwert) und Uhrzeit der Messung23:45:004.70 °C
Anzahl der automatisch eingelesenen Messwerte 96

Detaillierte Wetter- und Klima- Messwerte für den 03.07.2016 in Holzhau im Erzgebirge (630m ü.NN)
ZeitTemperaturLuftdruckRel. LuftfeuchteWindWindrichtungWindchillTaupunktNiederschlag l/m²
23:45:006.10 °C1018.50 hPa91.00 %4.70 °C4.66
23:30:006.10 °C1018.70 hPa91.00 %4.70 °C4.66
23:15:006.20 °C1018.50 hPa90.00 %4.70 °C4.66
23:00:006.40 °C1018.30 hPa90.00 %4.90 °C4.66
22:45:006.80 °C1018.10 hPa90.00 %5.30 °C4.66
22:30:007.20 °C1018.00 hPa90.00 %5.70 °C4.66
22:15:007.50 °C1017.80 hPa89.00 %5.80 °C4.66
22:00:008.10 °C1017.90 hPa89.00 %6.40 °C4.66
21:45:008.40 °C1017.70 hPa89.00 %6.70 °C4.66
21:30:008.90 °C1017.60 hPa89.00 %7.20 °C4.66
21:15:009.30 °C1017.60 hPa88.00 %7.40 °C4.66
21:00:009.80 °C1017.40 hPa88.00 %7.90 °C4.66
20:45:0010.10 °C1017.40 hPa88.00 %8.20 °C4.66
20:30:009.90 °C1017.30 hPa88.00 %8.00 °C4.66
20:15:009.80 °C1017.50 hPa87.00 %7.70 °C4.66
20:00:009.90 °C1017.50 hPa86.00 %7.70 °C4.14
19:45:009.90 °C1017.60 hPa85.00 %7.50 °C4.14
19:30:009.90 °C1017.50 hPa84.00 %7.30 °C4.14
19:15:0010.10 °C1017.40 hPa83.00 %7.30 °C4.14
19:00:0010.70 °C1017.60 hPa81.00 %7.60 °C4.14
18:45:0012.50 °C1017.70 hPa77.00 %8.60 °C4.14
18:30:0015.80 °C1016.60 hPa76.00 %11.60 °C2.59
18:15:0016.20 °C1016.40 hPa76.00 %12.00 °C2.59
18:00:0015.90 °C1016.20 hPa78.00 %12.10 °C2.59
17:45:0015.30 °C1016.40 hPa80.00 %11.90 °C2.59
17:30:0014.80 °C1016.40 hPa81.00 %11.60 °C2.59
17:15:0013.90 °C1016.20 hPa82.00 %10.90 °C2.59
17:00:0011.80 °C1016.60 hPa82.00 %8.80 °C2.59
16:45:0010.90 °C1016.80 hPa77.00 %7.00 °C2.59
16:30:0013.20 °C1017.50 hPa71.00 %8.10 °C2.07
16:15:0017.30 °C1016.20 hPa65.00 %10.70 °C 
16:00:0018.20 °C1015.90 hPa65.00 %11.50 °C 
15:45:0017.80 °C1016.00 hPa66.00 %11.40 °C 
15:30:0016.90 °C1016.00 hPa69.00 %11.20 °C 
15:15:0015.80 °C1016.10 hPa73.00 %11.00 °C 
15:00:0014.40 °C1016.30 hPa75.00 %10.00 °C 
14:45:0013.90 °C1016.40 hPa73.00 %9.10 °C 
14:30:0013.30 °C1016.40 hPa71.00 %8.20 °C 
14:15:0015.50 °C1016.90 hPa62.00 %8.30 °C 
14:00:0018.50 °C1016.20 hPa60.00 %10.60 °C 
13:45:0017.70 °C1016.30 hPa62.00 %10.30 °C 
13:30:0016.40 °C1016.50 hPa62.00 %9.10 °C 
13:15:0016.50 °C1016.60 hPa62.00 %9.20 °C 
13:00:0016.30 °C1016.80 hPa62.00 %9.00 °C 
12:45:0016.50 °C1016.80 hPa62.00 %9.20 °C 
12:30:0018.10 °C1016.70 hPa60.00 %10.20 °C 
12:15:0018.80 °C1016.80 hPa61.00 %11.10 °C 
12:00:0018.30 °C1016.90 hPa63.00 %11.10 °C 
11:45:0017.90 °C1017.00 hPa67.00 %11.70 °C 
11:30:0016.80 °C1017.00 hPa70.00 %11.30 °C 
11:15:0016.10 °C1017.20 hPa71.00 %10.80 °C 
11:00:0016.10 °C1017.10 hPa71.00 %10.80 °C 
10:45:0016.40 °C1017.10 hPa73.00 %11.60 °C 
10:30:0015.80 °C1017.00 hPa75.00 %11.40 °C 
10:15:0015.90 °C1017.10 hPa76.00 %11.70 °C 
10:00:0015.50 °C1017.00 hPa78.00 %11.70 °C 
09:45:0015.20 °C1016.80 hPa81.00 %12.00 °C 
09:30:0014.90 °C1017.10 hPa83.00 %12.00 °C 
09:15:0014.90 °C1017.00 hPa85.00 %12.40 °C 
09:00:0014.40 °C1016.90 hPa88.00 %12.40 °C 
08:45:0014.00 °C1016.90 hPa89.00 %12.20 °C 
08:30:0013.80 °C1016.90 hPa90.00 %12.20 °C 
08:15:0014.40 °C1016.80 hPa92.00 %13.10 °C 
08:00:0014.30 °C1016.60 hPa94.00 %13.30 °C 
07:45:0013.60 °C1016.60 hPa95.00 %12.80 °C 
07:30:0012.50 °C1016.60 hPa95.00 %11.70 °C 
07:15:0010.30 °C1016.70 hPa95.00 %9.50 °C 
07:00:008.30 °C1016.50 hPa95.00 %7.50 °C 
06:45:008.20 °C1016.30 hPa95.00 %7.40 °C 
06:30:007.60 °C1016.30 hPa95.00 %6.90 °C 
06:15:006.90 °C1016.20 hPa94.00 %6.00 °C 
06:00:006.70 °C1016.10 hPa94.00 %5.80 °C 
05:45:006.80 °C1016.00 hPa94.00 %5.90 °C 
05:30:007.10 °C1016.10 hPa94.00 %6.20 °C 
05:15:007.50 °C1016.00 hPa94.00 %6.60 °C 
05:00:007.60 °C1016.00 hPa94.00 %6.70 °C 
04:45:007.70 °C1016.00 hPa94.00 %6.80 °C 
04:30:007.60 °C1016.00 hPa94.00 %6.70 °C 
04:15:007.40 °C1016.00 hPa94.00 %6.50 °C 
04:00:007.30 °C1015.70 hPa94.00 %6.40 °C 
03:45:007.20 °C1016.00 hPa94.00 %6.30 °C 
03:30:007.20 °C1015.90 hPa94.00 %6.30 °C 
03:15:007.10 °C1015.80 hPa94.00 %6.20 °C 
03:00:007.10 °C1015.70 hPa94.00 %6.20 °C 
02:45:007.20 °C1015.70 hPa94.00 %6.30 °C 
02:30:007.40 °C1015.40 hPa94.00 %6.50 °C 
02:15:007.40 °C1015.40 hPa94.00 %6.50 °C 
02:00:007.30 °C1015.30 hPa94.00 %6.40 °C 
01:45:007.30 °C1015.40 hPa93.00 %6.20 °C 
01:30:007.50 °C1015.30 hPa93.00 %6.40 °C 
01:15:007.70 °C1015.30 hPa93.00 %6.60 °C 
01:00:007.90 °C1015.20 hPa93.00 %6.80 °C 
00:45:008.10 °C1015.10 hPa93.00 %7.00 °C 
00:30:008.50 °C1015.10 hPa93.00 %7.40 °C 
00:15:008.80 °C1015.10 hPa94.00 %7.90 °C 
00:00:008.80 °C1015.20 hPa94.00 %7.90 °C 

Permanenter Link zu dieser Seite: Wetter im Erzgebirge am 03.07.2016
Performance-Info: Die Erstellung der Seite / Statistik(en) / Tabelle(n) erforderte 5 Datenbankserver-Abfrage(n) und dauerte 101 Millisekunden. (Dieser Messwert ist von der Gesamt-Auslastung des Servers abhängig.)
Erzgebirge - Wetter | Erzgebirge - Wetter (Mobilgeräte) | Komplette Klimadatenbank